Time,TemperatureF,DewpointF,PressureIn,WindDirection,WindDirectionDegrees,WindSpeedMPH,WindSpeedGustMPH,Humidity,HourlyPrecipIn,Conditions,Clouds,dailyrainin,SoftwareType,DateUTC
2013-02-15 00:02:00,31.0,27.0,-100.00,West,275,9.0,14.0,86,-99.99,,,-99.99,,2013-02-15 06:02:00,
2013-02-15 00:11:00,31.0,26.0,-100.00,West,280,6.0,12.0,84,-99.99,,,-99.99,,2013-02-15 06:11:00,
2013-02-15 00:22:00,31.0,26.0,-100.00,WNW,290,7.0,11.0,83,-99.99,,,-99.99,,2013-02-15 06:22:00,
2013-02-15 00:32:00,31.0,26.0,-100.00,WNW,290,7.0,11.0,83,-99.99,,,-99.99,,2013-02-15 06:32:00,
2013-02-15 00:42:00,30.0,26.0,-100.00,WNW,290,5.0,14.0,82,-99.99,,,-99.99,,2013-02-15 06:42:00,
2013-02-15 00:52:00,30.0,26.0,-100.00,WNW,285,10.0,14.0,84,-99.99,,,-99.99,,2013-02-15 06:52:00,
2013-02-15 01:01:00,30.0,26.0,-100.00,WNW,285,10.0,14.0,84,-99.99,,,-99.99,,2013-02-15 07:01:00,
2013-02-15 01:11:00,30.0,26.0,-100.00,West,280,9.0,15.0,82,-99.99,,,-99.99,,2013-02-15 07:11:00,
2013-02-15 01:21:00,30.0,25.0,-100.00,West,280,9.0,16.0,81,-99.99,,,-99.99,,2013-02-15 07:21:00,
2013-02-15 01:31:00,30.0,25.0,-100.00,West,280,9.0,16.0,81,-99.99,,,-99.99,,2013-02-15 07:31:00,
2013-02-15 01:42:00,30.0,25.0,-100.00,West,275,10.0,16.0,81,-99.99,,,-99.99,,2013-02-15 07:42:00,
2013-02-15 01:52:00,30.0,24.0,-100.00,WNW,290,9.0,19.0,80,-99.99,,,-99.99,,2013-02-15 07:52:00,
2013-02-15 02:01:00,30.0,24.0,-100.00,WNW,290,9.0,19.0,80,-99.99,,,-99.99,,2013-02-15 08:01:00,
2013-02-15 02:11:00,29.0,24.0,-100.00,WNW,295,8.0,14.0,79,-99.99,,,-99.99,,2013-02-15 08:11:00,
2013-02-15 02:21:00,29.0,21.0,-100.00,WNW,300,12.0,22.0,73,-99.99,,,-99.99,,2013-02-15 08:21:00,
2013-02-15 02:32:00,29.0,21.0,-100.00,WNW,300,12.0,22.0,73,-99.99,,,-99.99,,2013-02-15 08:32:00,
2013-02-15 02:42:00,28.0,20.0,-100.00,WNW,300,11.0,18.0,70,-99.99,,,-99.99,,2013-02-15 08:42:00,
2013-02-15 02:53:00,28.0,20.0,-100.00,WNW,290,9.0,16.0,72,-99.99,,,-99.99,,2013-02-15 08:53:00,
2013-02-15 03:02:00,28.0,20.0,-100.00,WNW,290,9.0,16.0,72,-99.99,,,-99.99,,2013-02-15 09:02:00,
2013-02-15 03:12:00,27.0,18.0,-100.00,WNW,285,12.0,19.0,69,-99.99,,,-99.99,,2013-02-15 09:12:00,
2013-02-15 03:21:00,26.0,17.0,-100.00,WNW,285,11.0,17.0,67,-99.99,,,-99.99,,2013-02-15 09:21:00,
2013-02-15 03:32:00,26.0,17.0,-100.00,WNW,285,11.0,17.0,67,-99.99,,,-99.99,,2013-02-15 09:32:00,
2013-02-15 03:42:00,26.0,17.0,-100.00,NW,305,11.0,17.0,69,-99.99,,,-99.99,,2013-02-15 09:42:00,
2013-02-15 03:52:00,25.0,17.0,-100.00,WNW,300,9.0,15.0,69,-99.99,,,-99.99,,2013-02-15 09:52:00,
2013-02-15 04:01:00,25.0,17.0,-100.00,WNW,300,9.0,15.0,69,-99.99,,,-99.99,,2013-02-15 10:01:00,
2013-02-15 04:11:00,25.0,16.0,-100.00,WNW,290,9.0,17.0,68,-99.99,,,-99.99,,2013-02-15 10:11:00,
2013-02-15 04:21:00,24.0,16.0,-100.00,WNW,290,9.0,16.0,69,-99.99,,,-99.99,,2013-02-15 10:21:00,
2013-02-15 04:31:00,24.0,16.0,-100.00,WNW,290,9.0,16.0,69,-99.99,,,-99.99,,2013-02-15 10:31:00,
2013-02-15 04:42:00,24.0,16.0,-100.00,WNW,300,11.0,16.0,70,-99.99,,,-99.99,,2013-02-15 10:42:00,
2013-02-15 04:52:00,24.0,15.0,-100.00,NW,305,12.0,19.0,69,-99.99,,,-99.99,,2013-02-15 10:52:00,
2013-02-15 05:01:00,24.0,15.0,-100.00,NW,305,12.0,19.0,69,-99.99,,,-99.99,,2013-02-15 11:01:00,
2013-02-15 05:11:00,24.0,15.0,-100.00,NW,305,11.0,19.0,69,-99.99,,,-99.99,,2013-02-15 11:11:00,
2013-02-15 05:23:00,24.0,15.0,-100.00,WNW,300,8.0,19.0,68,-99.99,,,-99.99,,2013-02-15 11:23:00,
2013-02-15 05:32:00,24.0,15.0,-100.00,WNW,300,8.0,19.0,68,-99.99,,,-99.99,,2013-02-15 11:32:00,
2013-02-15 05:42:00,23.0,14.0,-100.00,NW,305,13.0,19.0,67,-99.99,,,-99.99,,2013-02-15 11:42:00,
2013-02-15 05:52:00,23.0,13.0,-100.00,NW,305,9.0,19.0,65,-99.99,,,-99.99,,2013-02-15 11:52:00,
2013-02-15 06:02:00,23.0,13.0,-100.00,NW,305,9.0,19.0,65,-99.99,,,-99.99,,2013-02-15 12:02:00,
2013-02-15 06:11:00,23.0,14.0,-100.00,WNW,300,11.0,16.0,68,-99.99,,,-99.99,,2013-02-15 12:11:00,
2013-02-15 06:21:00,22.0,13.0,-100.00,NW,320,9.0,17.0,67,-99.99,,,-99.99,,2013-02-15 12:21:00,
2013-02-15 06:32:00,22.0,13.0,-100.00,NW,320,9.0,17.0,67,-99.99,,,-99.99,,2013-02-15 12:32:00,
2013-02-15 06:42:00,22.0,13.0,-100.00,NW,305,9.0,15.0,67,-99.99,,,-99.99,,2013-02-15 12:42:00,
2013-02-15 06:52:00,22.0,13.0,-100.00,NW,310,9.0,15.0,69,-99.99,,,-99.99,,2013-02-15 12:52:00,
2013-02-15 07:02:00,22.0,13.0,-100.00,NW,310,9.0,15.0,69,-99.99,,,-99.99,,2013-02-15 13:02:00,
2013-02-15 07:11:00,22.0,12.0,-100.00,NW,310,10.0,15.0,67,-99.99,,,-99.99,,2013-02-15 13:11:00,
2013-02-15 07:22:00,22.0,12.0,-100.00,WNW,300,11.0,16.0,65,-99.99,,,-99.99,,2013-02-15 13:22:00,
2013-02-15 07:32:00,22.0,12.0,-100.00,WNW,300,11.0,16.0,65,-99.99,,,-99.99,,2013-02-15 13:32:00,
2013-02-15 07:42:00,22.0,12.0,-100.00,NW,305,8.0,16.0,66,-99.99,,,-99.99,,2013-02-15 13:42:00,
2013-02-15 07:52:00,21.0,12.0,-100.00,WNW,295,6.0,11.0,67,-99.99,,,-99.99,,2013-02-15 13:52:00,
2013-02-15 08:01:00,21.0,12.0,-100.00,WNW,295,6.0,11.0,67,-99.99,,,-99.99,,2013-02-15 14:01:00,
2013-02-15 08:12:00,21.0,12.0,-100.00,WNW,285,6.0,11.0,67,-99.99,,,-99.99,,2013-02-15 14:12:00,
2013-02-15 08:21:00,22.0,13.0,-100.00,WNW,300,8.0,12.0,68,-99.99,,,-99.99,,2013-02-15 14:21:00,
2013-02-15 08:32:00,22.0,13.0,-100.00,WNW,300,8.0,12.0,68,-99.99,,,-99.99,,2013-02-15 14:32:00,
2013-02-15 08:42:00,22.0,12.0,-100.00,WNW,295,8.0,16.0,65,-99.99,,,-99.99,,2013-02-15 14:42:00,
2013-02-15 08:52:00,23.0,12.0,-100.00,WNW,300,8.0,16.0,64,-99.99,,,-99.99,,2013-02-15 14:52:00,
2013-02-15 09:01:00,23.0,12.0,-100.00,WNW,300,8.0,16.0,64,-99.99,,,-99.99,,2013-02-15 15:01:00,
2013-02-15 09:11:00,23.0,11.0,-100.00,WNW,295,9.0,14.0,60,-99.99,,,-99.99,,2013-02-15 15:11:00,
2013-02-15 09:21:00,24.0,11.0,-100.00,WNW,285,6.0,13.0,59,-99.99,,,-99.99,,2013-02-15 15:21:00,
2013-02-15 09:32:00,24.0,11.0,-100.00,WNW,285,6.0,13.0,59,-99.99,,,-99.99,,2013-02-15 15:32:00,
2013-02-15 09:42:00,24.0,12.0,-100.00,West,275,8.0,12.0,58,-99.99,,,-99.99,,2013-02-15 15:42:00,
2013-02-15 09:52:00,25.0,11.0,-100.00,West,275,8.0,11.0,56,-99.99,,,-99.99,,2013-02-15 15:52:00,
2013-02-15 10:02:00,25.0,11.0,-100.00,West,275,8.0,11.0,56,-99.99,,,-99.99,,2013-02-15 16:02:00,
2013-02-15 10:11:00,25.0,11.0,-100.00,WNW,300,7.0,11.0,54,-99.99,,,-99.99,,2013-02-15 16:11:00,
2013-02-15 10:22:00,26.0,12.0,-100.00,West,275,6.0,14.0,54,-99.99,,,-99.99,,2013-02-15 16:22:00,
2013-02-15 10:32:00,26.0,12.0,-100.00,West,275,6.0,14.0,54,-99.99,,,-99.99,,2013-02-15 16:32:00,
2013-02-15 10:42:00,26.0,11.0,-100.00,WNW,295,8.0,14.0,54,-99.99,,,-99.99,,2013-02-15 16:42:00,
2013-02-15 10:52:00,26.0,11.0,-100.00,WNW,285,8.0,14.0,51,-99.99,,,-99.99,,2013-02-15 16:52:00,
2013-02-15 11:01:00,26.0,11.0,-100.00,WNW,285,8.0,14.0,51,-99.99,,,-99.99,,2013-02-15 17:01:00,
2013-02-15 11:11:00,27.0,12.0,-100.00,West,265,9.0,16.0,51,-99.99,,,-99.99,,2013-02-15 17:11:00,
2013-02-15 11:21:00,28.0,12.0,-100.00,West,270,8.0,14.0,51,-99.99,,,-99.99,,2013-02-15 17:21:00,
2013-02-15 11:32:00,28.0,10.0,-100.00,WNW,300,9.0,17.0,46,-99.99,,,-99.99,,2013-02-15 17:32:00,
2013-02-15 11:42:00,28.0,10.0,-100.00,WNW,300,9.0,17.0,46,-99.99,,,-99.99,,2013-02-15 17:42:00,
2013-02-15 11:52:00,30.0,15.0,-100.00,WSW,255,8.0,17.0,52,-99.99,,,-99.99,,2013-02-15 17:52:00,
2013-02-15 12:01:00,30.0,15.0,-100.00,WSW,255,8.0,17.0,52,-99.99,,,-99.99,,2013-02-15 18:01:00,
2013-02-15 12:11:00,29.0,14.0,-100.00,WNW,290,6.0,16.0,51,-99.99,,,-99.99,,2013-02-15 18:11:00,
2013-02-15 12:21:00,31.0,12.0,-100.00,WSW,250,9.0,15.0,45,-99.99,,,-99.99,,2013-02-15 18:21:00,
2013-02-15 12:32:00,31.0,12.0,-100.00,WSW,250,9.0,15.0,45,-99.99,,,-99.99,,2013-02-15 18:32:00,
2013-02-15 12:42:00,31.0,15.0,-100.00,West,260,9.0,14.0,50,-99.99,,,-99.99,,2013-02-15 18:42:00,
2013-02-15 12:53:00,31.0,14.0,-100.00,WNW,285,9.0,16.0,49,-99.99,,,-99.99,,2013-02-15 18:53:00,
2013-02-15 13:01:00,31.0,14.0,-100.00,WNW,285,9.0,16.0,49,-99.99,,,-99.99,,2013-02-15 19:01:00,
2013-02-15 13:11:00,33.0,13.0,-100.00,WNW,285,8.0,14.0,44,-99.99,,,-99.99,,2013-02-15 19:11:00,
2013-02-15 13:22:00,31.0,13.0,-100.00,West,280,11.0,18.0,47,-99.99,,,-99.99,,2013-02-15 19:22:00,
2013-02-15 13:32:00,31.0,13.0,-100.00,West,280,11.0,18.0,47,-99.99,,,-99.99,,2013-02-15 19:32:00,
2013-02-15 13:42:00,32.0,14.0,-100.00,WSW,250,11.0,21.0,47,-99.99,,,-99.99,,2013-02-15 19:42:00,
2013-02-15 13:52:00,31.0,14.0,-100.00,West,270,11.0,17.0,48,-99.99,,,-99.99,,2013-02-15 19:52:00,
2013-02-15 14:01:00,31.0,14.0,-100.00,West,270,11.0,17.0,48,-99.99,,,-99.99,,2013-02-15 20:01:00,
2013-02-15 14:11:00,31.0,12.0,-100.00,WSW,255,9.0,22.0,44,-99.99,,,-99.99,,2013-02-15 20:11:00,
2013-02-15 14:21:00,32.0,14.0,-100.00,West,265,11.0,21.0,47,-99.99,,,-99.99,,2013-02-15 20:21:00,
2013-02-15 14:32:00,32.0,14.0,-100.00,West,265,11.0,21.0,47,-99.99,,,-99.99,,2013-02-15 20:32:00,
2013-02-15 14:42:00,31.0,13.0,-100.00,West,270,11.0,21.0,45,-99.99,,,-99.99,,2013-02-15 20:42:00,
2013-02-15 14:52:00,31.0,13.0,-100.00,WNW,285,12.0,20.0,47,-99.99,,,-99.99,,2013-02-15 20:52:00,
2013-02-15 15:02:00,31.0,13.0,-100.00,WNW,285,12.0,20.0,47,-99.99,,,-99.99,,2013-02-15 21:02:00,
2013-02-15 15:11:00,32.0,12.0,-100.00,West,260,13.0,21.0,44,-99.99,,,-99.99,,2013-02-15 21:11:00,
2013-02-15 15:21:00,32.0,12.0,-100.00,WNW,285,10.0,16.0,44,-99.99,,,-99.99,,2013-02-15 21:21:00,
2013-02-15 15:32:00,32.0,12.0,-100.00,WNW,285,10.0,16.0,44,-99.99,,,-99.99,,2013-02-15 21:32:00,
2013-02-15 15:42:00,30.0,12.0,-100.00,WNW,295,11.0,19.0,46,-99.99,,,-99.99,,2013-02-15 21:42:00,
2013-02-15 15:52:00,29.0,12.0,-100.00,WNW,295,12.0,21.0,48,-99.99,,,-99.99,,2013-02-15 21:52:00,
2013-02-15 16:02:00,29.0,12.0,-100.00,WNW,295,12.0,21.0,48,-99.99,,,-99.99,,2013-02-15 22:02:00,
2013-02-15 16:11:00,28.0,12.0,-100.00,West,270,14.0,21.0,50,-99.99,,,-99.99,,2013-02-15 22:11:00,
2013-02-15 16:22:00,28.0,14.0,-100.00,West,280,10.0,22.0,54,-99.99,,,-99.99,,2013-02-15 22:22:00,
2013-02-15 16:31:00,28.0,14.0,-100.00,West,280,10.0,22.0,54,-99.99,,,-99.99,,2013-02-15 22:31:00,
2013-02-15 16:41:00,29.0,15.0,-100.00,WNW,285,11.0,19.0,57,-99.99,,,-99.99,,2013-02-15 22:41:00,
2013-02-15 16:52:00,28.0,14.0,-100.00,WNW,290,11.0,19.0,55,-99.99,,,-99.99,,2013-02-15 22:52:00,
2013-02-15 17:02:00,28.0,14.0,-100.00,WNW,290,11.0,19.0,55,-99.99,,,-99.99,,2013-02-15 23:02:00,
2013-02-15 17:11:00,27.0,13.0,-100.00,WNW,285,13.0,19.0,55,-99.99,,,-99.99,,2013-02-15 23:11:00,
2013-02-15 17:21:00,27.0,15.0,-100.00,West,280,10.0,16.0,59,-99.99,,,-99.99,,2013-02-15 23:21:00,
2013-02-15 17:32:00,27.0,15.0,-100.00,WNW,285,9.0,19.0,60,-99.99,,,-99.99,,2013-02-15 23:32:00,
2013-02-15 17:42:00,27.0,15.0,-100.00,WNW,285,9.0,19.0,60,-99.99,,,-99.99,,2013-02-15 23:42:00,
2013-02-15 17:52:00,27.0,16.0,-100.00,West,280,9.0,19.0,62,-99.99,,,-99.99,,2013-02-15 23:52:00,
2013-02-15 18:02:00,27.0,16.0,-100.00,West,280,9.0,19.0,62,-99.99,,,-99.99,,2013-02-16 00:02:00,
2013-02-15 18:11:00,26.0,15.0,-100.00,WNW,300,11.0,15.0,62,-99.99,,,-99.99,,2013-02-16 00:11:00,
2013-02-15 18:21:00,26.0,13.0,-100.00,WNW,295,10.0,19.0,59,-99.99,,,-99.99,,2013-02-16 00:21:00,
2013-02-15 18:32:00,26.0,13.0,-100.00,WNW,295,10.0,19.0,59,-99.99,,,-99.99,,2013-02-16 00:32:00,
2013-02-15 18:41:00,25.0,13.0,-100.00,WNW,290,10.0,19.0,60,-99.99,,,-99.99,,2013-02-16 00:41:00,
2013-02-15 18:52:00,25.0,12.0,-100.00,WNW,285,10.0,17.0,57,-99.99,,,-99.99,,2013-02-16 00:52:00,
2013-02-15 19:02:00,25.0,12.0,-100.00,WNW,285,10.0,17.0,57,-99.99,,,-99.99,,2013-02-16 01:02:00,
2013-02-15 19:11:00,25.0,12.0,-100.00,WNW,290,9.0,19.0,58,-99.99,,,-99.99,,2013-02-16 01:11:00,
2013-02-15 19:21:00,25.0,13.0,-100.00,WNW,290,8.0,15.0,62,-99.99,,,-99.99,,2013-02-16 01:21:00,
2013-02-15 19:32:00,25.0,13.0,-100.00,WNW,290,8.0,15.0,62,-99.99,,,-99.99,,2013-02-16 01:32:00,
2013-02-15 19:42:00,24.0,13.0,-100.00,West,280,10.0,16.0,61,-99.99,,,-99.99,,2013-02-16 01:42:00,
2013-02-15 19:52:00,24.0,13.0,-100.00,WNW,295,8.0,14.0,62,-99.99,,,-99.99,,2013-02-16 01:52:00,
2013-02-15 20:01:00,24.0,13.0,-100.00,WNW,295,8.0,14.0,62,-99.99,,,-99.99,,2013-02-16 02:01:00,
2013-02-15 20:11:00,24.0,12.0,-100.00,NW,305,11.0,23.0,59,-99.99,,,-99.99,,2013-02-16 02:11:00,
2013-02-15 20:21:00,24.0,12.0,-100.00,NW,305,13.0,21.0,61,-99.99,,,-99.99,,2013-02-16 02:21:00,
2013-02-15 20:32:00,24.0,12.0,-100.00,NW,305,13.0,21.0,61,-99.99,,,-99.99,,2013-02-16 02:32:00,
2013-02-15 20:42:00,23.0,12.0,-100.00,WNW,295,10.0,18.0,61,-99.99,,,-99.99,,2013-02-16 02:42:00,
2013-02-15 20:52:00,23.0,13.0,-100.00,WNW,285,9.0,15.0,63,-99.99,,,-99.99,,2013-02-16 02:52:00,
2013-02-15 21:02:00,23.0,13.0,-100.00,WNW,285,9.0,15.0,63,-99.99,,,-99.99,,2013-02-16 03:02:00,
2013-02-15 21:11:00,23.0,12.0,-100.00,West,280,9.0,18.0,63,-99.99,,,-99.99,,2013-02-16 03:11:00,
2013-02-15 21:21:00,23.0,13.0,-100.00,WNW,295,9.0,15.0,64,-99.99,,,-99.99,,2013-02-16 03:21:00,
2013-02-15 21:32:00,23.0,13.0,-100.00,WNW,295,9.0,15.0,64,-99.99,,,-99.99,,2013-02-16 03:32:00,
2013-02-15 21:42:00,22.0,11.0,-100.00,WNW,285,10.0,16.0,62,-99.99,,,-99.99,,2013-02-16 03:42:00,
2013-02-15 21:52:00,22.0,11.0,-100.00,WNW,295,12.0,19.0,61,-99.99,,,-99.99,,2013-02-16 03:52:00,
2013-02-15 22:01:00,22.0,11.0,-100.00,WNW,295,12.0,19.0,61,-99.99,,,-99.99,,2013-02-16 04:01:00,
2013-02-15 22:11:00,22.0,11.0,-100.00,WNW,295,9.0,17.0,63,-99.99,,,-99.99,,2013-02-16 04:11:00,
2013-02-15 22:21:00,22.0,12.0,-100.00,WNW,285,11.0,16.0,64,-99.99,,,-99.99,,2013-02-16 04:21:00,
2013-02-15 22:32:00,22.0,12.0,-100.00,WNW,285,11.0,16.0,64,-99.99,,,-99.99,,2013-02-16 04:32:00,
2013-02-15 22:42:00,21.0,11.0,-100.00,WNW,295,9.0,16.0,64,-99.99,,,-99.99,,2013-02-16 04:42:00,
2013-02-15 22:52:00,21.0,11.0,-100.00,WNW,295,7.0,13.0,66,-99.99,,,-99.99,,2013-02-16 04:52:00,
2013-02-15 23:01:00,21.0,11.0,-100.00,WNW,295,7.0,13.0,66,-99.99,,,-99.99,,2013-02-16 05:01:00,
2013-02-15 23:12:00,21.0,11.0,-100.00,WNW,300,6.0,14.0,67,-99.99,,,-99.99,,2013-02-16 05:12:00,
2013-02-15 23:22:00,21.0,11.0,-100.00,WNW,300,8.0,13.0,67,-99.99,,,-99.99,,2013-02-16 05:22:00,
2013-02-15 23:32:00,21.0,11.0,-100.00,WNW,300,8.0,13.0,67,-99.99,,,-99.99,,2013-02-16 05:32:00,
2013-02-15 23:42:00,20.0,11.0,-100.00,NW,310,11.0,18.0,67,-99.99,,,-99.99,,2013-02-16 05:42:00,
2013-02-15 23:52:00,20.0,10.0,-100.00,WNW,295,11.0,15.0,66,-99.99,,,-99.99,,2013-02-16 05:52:00,